Main page
METAR-TAF:

METAR-TAF

Airports :

Cardiff, Wales

Cardiff Airport

latitude: 51-24N, longitude: 003-21W, elevation: 67 m

Current weather observation

The report was made 30 minutes ago, at 17:20 UTC
Wind 11 kt from the West/Northwest
Temperature 10°C
Humidity 62%
Pressure 1017 hPa
Visibility 10 km or more

METAR: EGFF 281720Z AUTO 29011KT 9999 NCD 10/03 Q1017

Time: 18:50 (17:50 UTC)

Forecast

The report was made 48 minutes ago, at 17:02 UTC
Forecast valid from 28 at 18 UTC to 29 at 18 UTC
Wind 10 kt from the West/Northwest
Visibility 10 km or more
Scattered clouds at a height of 4000 ft
Becoming
from 29 at 00 UTC to 29 at 03 UTC
Wind 10 kt from the South

TAF: EGFF 281702Z 2818/2918 29010KT 9999 SCT040 BECMG 2900/2903 18010KT

Weather observations and forecasts of more than 4000 airports (METAR and TAF reports).

The available stations are represented by yellow and red dots on the map.

Hover mouse over dot to see the name of the station.

Then click to see weather observations and forecasts.

To change the map : click on the green buttons with a black cross to zoom in, on the green button with a dash to zoom out, or on the green arrows for adjacent maps.


METAR-TAF: